createdAt,value
2018-12-15T00:01:28.285Z,21.17
2018-12-15T00:03:56.802Z,17.87
2018-12-15T00:06:25.269Z,19.63
2018-12-15T00:08:54.028Z,17.63
2018-12-15T00:11:22.893Z,23.23
2018-12-15T00:13:51.407Z,21.30
2018-12-15T00:16:20.543Z,23.70
2018-12-15T00:18:49.177Z,24.07
2018-12-15T00:21:17.603Z,21.33
2018-12-15T00:23:46.070Z,25.80
2018-12-15T00:26:14.774Z,24.73
2018-12-15T00:28:43.288Z,22.33
2018-12-15T00:31:11.630Z,24.00
2018-12-15T00:33:40.149Z,23.90
2018-12-15T00:36:08.533Z,23.47
2018-12-15T00:38:36.924Z,22.20
2018-12-15T00:41:05.660Z,22.60
2018-12-15T00:43:34.178Z,23.97
2018-12-15T00:46:02.493Z,24.63
2018-12-15T00:48:31.019Z,23.70
2018-12-15T00:50:59.505Z,23.13
2018-12-15T00:53:27.809Z,22.87
2018-12-15T00:55:56.390Z,24.23
2018-12-15T00:58:24.802Z,26.90
2018-12-15T01:00:53.333Z,22.57
2018-12-15T01:03:21.726Z,22.30
2018-12-15T01:05:50.126Z,24.63
2018-12-15T01:08:18.847Z,24.10
2018-12-15T01:10:47.207Z,25.13
2018-12-15T01:13:15.661Z,25.53
2018-12-15T01:15:45.411Z,23.30
2018-12-15T01:18:14.682Z,25.37
2018-12-15T01:20:43.105Z,27.10
2018-12-15T01:23:11.390Z,25.23
2018-12-15T01:25:39.781Z,27.03
2018-12-15T01:28:08.545Z,24.97
2018-12-15T01:30:36.870Z,24.73
2018-12-15T01:33:05.235Z,23.37
2018-12-15T01:35:33.916Z,22.43
2018-12-15T01:38:02.382Z,25.00
2018-12-15T01:40:30.722Z,24.57
2018-12-15T01:42:59.313Z,25.80
2018-12-15T01:45:27.690Z,25.70
2018-12-15T01:47:56.302Z,25.60
2018-12-15T01:50:24.750Z,24.70
2018-12-15T01:52:53.319Z,24.97
2018-12-15T01:55:21.887Z,25.00
2018-12-15T01:57:50.402Z,27.40
2018-12-15T02:00:19.441Z,24.23
2018-12-15T02:02:47.778Z,24.27
2018-12-15T02:05:19.679Z,27.20
2018-12-15T02:07:48.313Z,25.80
2018-12-15T02:10:16.954Z,27.83
2018-12-15T02:12:45.355Z,25.87
2018-12-15T02:15:13.714Z,26.90
2018-12-15T02:17:42.605Z,27.13
2018-12-15T02:20:11.133Z,27.87
2018-12-15T02:25:07.788Z,25.97
2018-12-15T02:27:36.241Z,26.07
2018-12-15T02:30:04.879Z,24.83
2018-12-15T02:32:33.374Z,29.03
2018-12-15T02:35:02.044Z,28.77
2018-12-15T02:37:34.668Z,27.67
2018-12-15T02:40:03.408Z,28.80
2018-12-15T02:42:31.797Z,27.90
2018-12-15T02:45:00.345Z,25.93
2018-12-15T02:47:29.081Z,28.33
2018-12-15T02:49:57.587Z,28.70
2018-12-15T02:52:26.025Z,25.83
2018-12-15T02:54:54.850Z,25.27
2018-12-15T02:57:23.303Z,29.10
2018-12-15T02:59:51.835Z,26.60
2018-12-15T03:02:20.471Z,27.67
2018-12-15T03:04:49.083Z,28.13
2018-12-15T03:07:17.489Z,28.10
2018-12-15T03:09:44.825Z,28.57
2018-12-15T03:12:13.293Z,26.30
2018-12-15T03:14:41.804Z,26.73
2018-12-15T03:17:10.391Z,24.57
2018-12-15T03:19:37.966Z,26.40
2018-12-15T03:22:06.430Z,25.73
2018-12-15T03:24:38.282Z,27.43
2018-12-15T03:27:06.891Z,27.83
2018-12-15T03:29:35.272Z,28.37
2018-12-15T03:32:03.760Z,27.83
2018-12-15T03:34:32.083Z,27.60
2018-12-15T03:37:00.677Z,27.57
2018-12-15T03:39:29.236Z,27.53
2018-12-15T03:41:57.729Z,28.83
2018-12-15T03:44:26.062Z,28.70
2018-12-15T03:46:54.585Z,27.53
2018-12-15T03:49:23.058Z,25.97
2018-12-15T03:51:51.930Z,26.50
2018-12-15T03:54:20.025Z,26.53
2018-12-15T03:56:48.529Z,28.00
2018-12-15T03:59:16.967Z,25.77
2018-12-15T04:01:45.461Z,26.90
2018-12-15T04:04:13.886Z,26.37
2018-12-15T04:06:42.555Z,28.07
2018-12-15T04:09:11.054Z,26.50
2018-12-15T04:11:39.463Z,26.67
2018-12-15T04:14:07.894Z,26.57
2018-12-15T04:16:36.048Z,27.07
2018-12-15T04:19:04.352Z,26.97
2018-12-15T04:21:32.717Z,28.57
2018-12-15T04:24:01.302Z,27.50
2018-12-15T04:26:29.703Z,29.23
2018-12-15T04:28:58.042Z,29.93
2018-12-15T04:31:26.409Z,25.40
2018-12-15T04:33:54.773Z,28.83
2018-12-15T04:36:23.109Z,26.20
2018-12-15T04:38:52.129Z,29.63
2018-12-15T04:41:20.480Z,28.47
2018-12-15T04:43:48.932Z,25.93
2018-12-15T04:46:17.662Z,27.73
2018-12-15T04:48:46.212Z,27.27
2018-12-15T04:51:14.621Z,25.83
2018-12-15T04:56:10.601Z,26.77
2018-12-15T04:58:39.205Z,29.00
2018-12-15T05:01:07.573Z,29.13
2018-12-15T05:03:35.906Z,28.23
2018-12-15T05:06:04.546Z,29.33
2018-12-15T05:08:32.945Z,27.73
2018-12-15T05:11:01.425Z,28.83
2018-12-15T05:13:29.881Z,28.87
2018-12-15T05:15:58.420Z,27.77
2018-12-15T05:20:54.417Z,27.23
2018-12-15T05:23:22.793Z,28.83
2018-12-15T05:25:51.787Z,30.87
2018-12-15T05:28:20.809Z,29.47
2018-12-15T05:30:49.570Z,27.60
2018-12-15T05:33:17.296Z,26.77
2018-12-15T05:35:45.722Z,30.00
2018-12-15T05:38:14.252Z,27.20
2018-12-15T05:40:42.755Z,29.27
2018-12-15T05:43:11.102Z,28.70
2018-12-15T05:45:39.527Z,28.13
2018-12-15T05:48:08.750Z,26.97
2018-12-15T05:50:37.477Z,30.63
2018-12-15T05:53:06.117Z,29.63
2018-12-15T05:55:35.075Z,30.90
2018-12-15T05:58:03.565Z,32.37
2018-12-15T06:00:32.182Z,29.90
2018-12-15T06:03:00.952Z,29.80
2018-12-15T06:05:29.494Z,28.13
2018-12-15T06:07:58.322Z,28.70
2018-12-15T06:10:26.915Z,32.50
2018-12-15T06:12:54.345Z,26.83
2018-12-15T06:15:22.823Z,26.93
2018-12-15T06:17:51.385Z,27.10
2018-12-15T06:20:19.853Z,27.93
2018-12-15T06:22:47.420Z,26.00
2018-12-15T06:25:16.004Z,25.77
2018-12-15T06:27:44.425Z,27.20
2018-12-15T06:30:12.473Z,27.37
2018-12-15T06:32:40.977Z,27.83
2018-12-15T06:35:09.345Z,23.90
2018-12-15T06:40:12.289Z,24.70
2018-12-15T06:42:40.678Z,26.73
2018-12-15T06:45:09.190Z,24.77
2018-12-15T06:47:37.974Z,25.67
2018-12-15T06:50:06.733Z,29.37
2018-12-15T06:55:05.538Z,26.60
2018-12-15T06:57:33.963Z,27.77
2018-12-15T07:00:02.582Z,28.27
2018-12-15T07:02:30.380Z,26.13
2018-12-15T07:04:57.831Z,26.27
2018-12-15T07:07:27.005Z,25.53
2018-12-15T07:09:55.538Z,27.80
2018-12-15T07:12:24.745Z,22.40
2018-12-15T07:14:53.500Z,25.63
2018-12-15T07:17:21.898Z,23.93
2018-12-15T07:20:00.490Z,23.60
2018-12-15T07:22:29.198Z,23.00
2018-12-15T07:24:58.198Z,22.00
2018-12-15T07:27:27.221Z,22.13
2018-12-15T07:29:56.141Z,23.00
2018-12-15T07:32:24.842Z,21.47
2018-12-15T07:34:53.611Z,20.00
2018-12-15T07:37:22.202Z,20.47
2018-12-15T07:39:52.334Z,18.63
2018-12-15T07:42:21.422Z,19.33
2018-12-15T07:44:50.955Z,19.27
2018-12-15T07:47:19.855Z,20.20
2018-12-15T07:49:48.574Z,20.30
2018-12-15T07:52:17.181Z,19.17
2018-12-15T07:54:46.285Z,18.17
2018-12-15T07:57:16.051Z,17.27
2018-12-15T07:59:44.822Z,18.23
2018-12-15T08:02:13.574Z,17.67
2018-12-15T08:04:44.196Z,18.00
2018-12-15T08:07:14.237Z,18.40
2018-12-15T08:09:43.296Z,18.97
2018-12-15T08:12:17.640Z,20.50
2018-12-15T08:14:46.383Z,21.53
2018-12-15T08:17:15.534Z,17.70
2018-12-15T08:19:44.593Z,21.33
2018-12-15T08:22:13.195Z,19.30
2018-12-15T08:24:41.833Z,24.37
2018-12-15T08:27:10.376Z,23.70
2018-12-15T08:29:38.880Z,19.07
2018-12-15T08:32:07.457Z,23.70
2018-12-15T08:34:38.288Z,22.57
2018-12-15T08:37:10.104Z,21.17
2018-12-15T08:39:38.857Z,20.80
2018-12-15T08:42:07.228Z,20.97
2018-12-15T08:44:35.987Z,19.80
2018-12-15T08:47:05.706Z,21.80
2018-12-15T08:49:34.295Z,23.10
2018-12-15T08:52:02.678Z,23.73
2018-12-15T08:54:36.322Z,23.60
2018-12-15T08:59:46.797Z,20.90
2018-12-15T09:02:17.043Z,21.63
2018-12-15T09:04:45.574Z,19.93
2018-12-15T09:07:27.927Z,21.07
2018-12-15T09:09:56.362Z,18.87
2018-12-15T09:12:36.115Z,18.93
2018-12-15T09:15:05.347Z,20.93
2018-12-15T09:17:34.805Z,18.10
2018-12-15T09:22:31.726Z,21.63
2018-12-15T09:25:00.310Z,21.73
2018-12-15T09:27:28.837Z,22.00
2018-12-15T09:30:05.850Z,20.23
2018-12-15T09:32:34.291Z,19.77
2018-12-15T09:35:02.717Z,22.73
2018-12-15T09:39:59.697Z,22.43
2018-12-15T09:42:28.168Z,18.87
2018-12-15T09:44:57.055Z,21.00
2018-12-15T09:47:25.577Z,21.13
2018-12-15T09:49:54.129Z,21.87
2018-12-15T09:52:22.573Z,20.97
2018-12-15T09:54:51.745Z,22.97
2018-12-15T09:57:20.125Z,21.40
2018-12-15T10:02:43.682Z,19.77
2018-12-15T10:05:12.903Z,20.43
2018-12-15T10:07:41.317Z,21.37
2018-12-15T10:10:09.887Z,20.40
2018-12-15T10:12:38.430Z,21.90
2018-12-15T10:15:06.950Z,19.50
2018-12-15T10:17:35.778Z,19.13
2018-12-15T10:20:04.710Z,20.80
2018-12-15T10:22:33.373Z,21.30
2018-12-15T10:25:01.815Z,20.33
2018-12-15T10:27:30.282Z,19.83
2018-12-15T10:30:04.341Z,19.17
2018-12-15T10:32:38.160Z,18.03
2018-12-15T10:35:07.263Z,20.10
2018-12-15T10:37:35.624Z,18.87
2018-12-15T10:40:04.358Z,21.10
2018-12-15T10:42:33.177Z,18.10
2018-12-15T10:45:01.942Z,19.83
2018-12-15T10:47:31.263Z,19.30
2018-12-15T10:50:00.155Z,21.27
2018-12-15T10:52:28.503Z,19.67
2018-12-15T10:54:57.268Z,18.90
2018-12-15T10:57:25.954Z,19.17
2018-12-15T10:59:54.658Z,16.83
2018-12-15T11:02:23.886Z,17.37
2018-12-15T11:04:52.684Z,19.60
2018-12-15T11:07:22.363Z,17.87
2018-12-15T11:09:51.187Z,19.30
2018-12-15T11:12:19.958Z,17.67
2018-12-15T11:14:48.438Z,22.07
2018-12-15T11:17:16.893Z,20.10
2018-12-15T11:19:45.336Z,19.60
2018-12-15T11:22:13.885Z,19.07
2018-12-15T11:24:42.692Z,19.50
2018-12-15T11:27:11.375Z,20.13
2018-12-15T11:29:40.228Z,19.47
2018-12-15T11:32:08.777Z,19.17
2018-12-15T11:34:37.311Z,20.13
2018-12-15T11:37:06.528Z,19.17
2018-12-15T11:39:35.133Z,20.27
2018-12-15T11:42:04.036Z,20.70
2018-12-15T11:44:32.374Z,21.67
2018-12-15T11:47:01.386Z,20.10
2018-12-15T11:49:30.063Z,20.37
2018-12-15T11:51:58.590Z,18.17
2018-12-15T11:54:27.528Z,18.07
2018-12-15T11:56:56.283Z,19.03
2018-12-15T11:59:25.879Z,20.17
2018-12-15T12:01:54.200Z,16.80
2018-12-15T12:04:22.787Z,18.43
2018-12-15T12:06:51.460Z,19.57
2018-12-15T12:09:19.964Z,17.80
2018-12-15T12:11:48.513Z,18.17
2018-12-15T12:14:17.007Z,17.23
2018-12-15T12:16:45.565Z,19.60
2018-12-15T12:19:14.016Z,16.23
2018-12-15T12:21:42.417Z,20.47
2018-12-15T12:24:10.864Z,18.43
2018-12-15T12:26:39.293Z,19.10
2018-12-15T12:29:07.874Z,18.03
2018-12-15T12:31:36.357Z,17.20
2018-12-15T12:34:05.006Z,19.37
2018-12-15T12:36:33.310Z,19.87
2018-12-15T12:39:01.827Z,21.97
2018-12-15T12:41:31.217Z,18.93
2018-12-15T12:43:59.844Z,17.90
2018-12-15T12:46:28.482Z,18.50
2018-12-15T12:48:57.287Z,23.10
2018-12-15T12:51:26.749Z,21.23
2018-12-15T12:53:55.488Z,21.33
2018-12-15T12:56:23.900Z,18.07
2018-12-15T12:58:52.734Z,21.97
2018-12-15T13:01:21.252Z,20.83
2018-12-15T13:03:49.921Z,18.30
2018-12-15T13:06:18.934Z,20.43
2018-12-15T13:08:47.428Z,19.77
2018-12-15T13:11:15.998Z,20.07
2018-12-15T13:13:45.724Z,18.97
2018-12-15T13:16:14.981Z,19.77
2018-12-15T13:18:44.523Z,19.17
2018-12-15T13:21:14.265Z,21.63
2018-12-15T13:23:42.997Z,19.20
2018-12-15T13:26:12.682Z,19.97
2018-12-15T13:28:41.227Z,20.37
2018-12-15T13:31:10.017Z,20.33
2018-12-15T13:33:38.542Z,18.43
2018-12-15T13:36:14.332Z,21.27
2018-12-15T13:38:42.791Z,17.90
2018-12-15T13:41:11.498Z,19.83
2018-12-15T13:43:40.173Z,20.90
2018-12-15T13:46:09.096Z,20.20
2018-12-15T13:48:37.801Z,21.13
2018-12-15T13:51:06.695Z,19.07
2018-12-15T13:53:35.595Z,19.97
2018-12-15T13:56:04.885Z,18.97
2018-12-15T13:58:34.680Z,21.80
2018-12-15T14:01:03.410Z,22.10
2018-12-15T14:03:32.455Z,20.40
2018-12-15T14:06:01.694Z,21.73
2018-12-15T14:08:30.233Z,21.13
2018-12-15T14:10:58.936Z,23.77
2018-12-15T14:13:27.414Z,21.70
2018-12-15T14:15:56.217Z,21.07
2018-12-15T14:18:24.717Z,21.10
2018-12-15T14:20:53.370Z,20.87
2018-12-15T14:23:22.658Z,21.70
2018-12-15T14:25:51.218Z,19.87
2018-12-15T14:31:14.019Z,22.77
2018-12-15T14:33:42.632Z,20.97
2018-12-15T14:36:11.577Z,22.87
2018-12-15T14:38:40.340Z,21.27
2018-12-15T14:41:09.122Z,22.87
2018-12-15T14:43:37.709Z,21.67
2018-12-15T14:46:06.882Z,22.87
2018-12-15T14:48:35.874Z,23.13
2018-12-15T14:51:04.518Z,22.57
2018-12-15T14:53:37.911Z,22.87
2018-12-15T14:56:06.631Z,20.20
2018-12-15T14:58:35.190Z,22.90
2018-12-15T15:01:03.738Z,22.43
2018-12-15T15:03:32.253Z,21.80
2018-12-15T15:06:00.833Z,24.30
2018-12-15T15:08:29.400Z,21.63
2018-12-15T15:10:57.775Z,23.37
2018-12-15T15:13:26.792Z,23.73
2018-12-15T15:15:56.204Z,25.27
2018-12-15T15:18:24.880Z,22.60
2018-12-15T15:20:56.412Z,24.67
2018-12-15T15:23:24.855Z,24.77
2018-12-15T15:25:54.316Z,25.40
2018-12-15T15:28:23.716Z,22.40
2018-12-15T15:30:52.864Z,23.17
2018-12-15T15:33:22.204Z,25.13
2018-12-15T15:35:50.939Z,25.20
2018-12-15T15:38:19.866Z,23.60
2018-12-15T15:40:48.390Z,27.53
2018-12-15T15:43:17.365Z,28.03
2018-12-15T15:45:45.802Z,26.27
2018-12-15T15:48:14.381Z,23.70
2018-12-15T15:50:42.958Z,24.43
2018-12-15T15:53:12.789Z,23.60
2018-12-15T15:55:42.073Z,26.20
2018-12-15T15:58:10.905Z,29.20
2018-12-15T16:00:40.885Z,24.13
2018-12-15T16:03:09.479Z,31.23
2018-12-15T16:05:37.978Z,24.27
2018-12-15T16:08:06.659Z,26.33
2018-12-15T16:10:36.091Z,23.20
2018-12-15T16:13:04.693Z,26.30
2018-12-15T16:18:28.612Z,25.27
2018-12-15T16:20:59.678Z,27.60
2018-12-15T16:23:29.377Z,28.00
2018-12-15T16:25:58.954Z,28.27
2018-12-15T16:28:27.798Z,26.37
2018-12-15T16:30:56.938Z,24.07
2018-12-15T16:33:25.811Z,26.67
2018-12-15T16:35:54.295Z,26.33
2018-12-15T16:38:23.442Z,26.70
2018-12-15T16:40:51.427Z,27.13
2018-12-15T16:43:20.469Z,24.93
2018-12-15T16:45:49.368Z,25.50
2018-12-15T16:48:18.098Z,27.13
2018-12-15T16:50:50.188Z,27.30
2018-12-15T16:53:33.240Z,27.90
2018-12-15T17:02:27.240Z,24.03
2018-12-15T17:07:56.707Z,30.27
2018-12-15T17:10:26.463Z,23.17
2018-12-15T17:12:55.432Z,24.67
2018-12-15T17:15:24.800Z,25.70
2018-12-15T17:17:53.373Z,23.20
2018-12-15T17:20:23.449Z,24.30
2018-12-15T17:26:47.406Z,28.40
2018-12-15T17:29:15.786Z,26.33
2018-12-15T17:31:44.710Z,26.37
2018-12-15T17:34:13.190Z,25.17
2018-12-15T17:36:41.638Z,25.50
2018-12-15T17:39:10.670Z,25.20
2018-12-15T17:41:39.504Z,25.90
2018-12-15T17:44:08.039Z,24.27
2018-12-15T17:46:36.670Z,22.67
2018-12-15T17:49:05.355Z,24.40
2018-12-15T17:51:35.221Z,21.80
2018-12-15T17:54:03.804Z,25.30
2018-12-15T17:56:32.664Z,24.20
2018-12-15T17:59:01.014Z,25.60
2018-12-15T18:01:29.793Z,22.27
2018-12-15T18:03:58.371Z,20.60
2018-12-15T18:06:27.492Z,27.40
2018-12-15T18:08:56.075Z,22.70
2018-12-15T18:11:24.584Z,22.67
2018-12-15T18:13:53.105Z,22.17
2018-12-15T18:16:21.698Z,25.43
2018-12-15T18:18:50.865Z,20.40
2018-12-15T18:21:19.837Z,22.50
2018-12-15T18:23:48.910Z,21.53
2018-12-15T18:26:17.712Z,22.07
2018-12-15T18:28:46.464Z,20.07
2018-12-15T18:31:15.873Z,23.27
2018-12-15T18:33:44.779Z,21.87
2018-12-15T18:36:13.679Z,22.20
2018-12-15T18:38:42.321Z,22.17
2018-12-15T18:41:11.254Z,25.57
2018-12-15T18:43:39.742Z,22.70
2018-12-15T18:46:08.428Z,26.60
2018-12-15T18:48:36.885Z,23.17
2018-12-15T18:51:05.627Z,25.53
2018-12-15T18:53:34.151Z,21.93
2018-12-15T18:56:02.859Z,22.13
2018-12-15T18:58:31.437Z,23.47
2018-12-15T19:01:00.030Z,22.90
2018-12-15T19:03:28.740Z,21.90
2018-12-15T19:05:58.037Z,18.87
2018-12-15T19:08:26.728Z,22.63
2018-12-15T19:10:55.329Z,24.57
2018-12-15T19:13:24.060Z,24.13
2018-12-15T19:15:52.945Z,19.20
2018-12-15T19:18:21.701Z,21.03
2018-12-15T19:20:50.156Z,23.23
2018-12-15T19:23:18.723Z,23.40
2018-12-15T19:25:47.484Z,24.23
2018-12-15T19:28:16.166Z,26.53
2018-12-15T19:30:44.755Z,25.43
2018-12-15T19:33:13.548Z,24.03
2018-12-15T19:38:35.102Z,24.13
2018-12-15T19:41:03.925Z,20.37
2018-12-15T19:43:32.540Z,22.50
2018-12-15T19:46:01.342Z,20.70
2018-12-15T19:48:31.093Z,23.60
2018-12-15T19:50:59.886Z,24.30
2018-12-15T19:53:28.407Z,24.40
2018-12-15T19:55:57.357Z,24.63
2018-12-15T19:58:26.047Z,22.57
2018-12-15T20:00:55.183Z,21.47
2018-12-15T20:03:24.528Z,21.00
2018-12-15T20:05:53.254Z,25.47
2018-12-15T20:08:22.055Z,23.20
2018-12-15T20:10:50.653Z,23.57
2018-12-15T20:13:19.194Z,21.93
2018-12-15T20:15:48.152Z,21.50
2018-12-15T20:18:16.848Z,21.63
2018-12-15T20:20:45.272Z,24.17
2018-12-15T20:23:14.786Z,25.37
2018-12-15T20:25:43.285Z,21.03
2018-12-15T20:28:11.805Z,22.57
2018-12-15T20:30:40.484Z,20.53
2018-12-15T20:33:09.015Z,22.13
2018-12-15T20:35:38.858Z,23.17
2018-12-15T20:38:08.193Z,20.93
2018-12-15T20:40:36.671Z,24.77
2018-12-15T20:43:05.545Z,23.00
2018-12-15T20:45:34.128Z,24.23
2018-12-15T20:48:02.502Z,23.53
2018-12-15T20:50:31.053Z,24.80
2018-12-15T20:52:59.597Z,22.30
2018-12-15T20:55:28.142Z,23.80
2018-12-15T20:57:56.807Z,22.20
2018-12-15T21:00:25.649Z,23.60
2018-12-15T21:02:54.098Z,25.43
2018-12-15T21:05:22.741Z,22.20
2018-12-15T21:07:51.406Z,23.13
2018-12-15T21:10:19.782Z,23.87
2018-12-15T21:12:48.410Z,20.70
2018-12-15T21:15:22.892Z,22.83
2018-12-15T21:17:51.444Z,21.87
2018-12-15T21:20:19.983Z,21.13
2018-12-15T21:22:48.578Z,23.87
2018-12-15T21:25:17.098Z,20.50
2018-12-15T21:27:45.670Z,23.03
2018-12-15T21:30:21.901Z,22.80
2018-12-15T21:32:50.477Z,24.43
2018-12-15T21:35:19.954Z,23.77
2018-12-15T21:37:48.485Z,21.10
2018-12-15T21:40:16.892Z,23.97
2018-12-15T21:42:46.373Z,25.93
2018-12-15T21:45:15.069Z,28.50
2018-12-15T21:47:43.568Z,26.83
2018-12-15T21:50:12.318Z,25.23
2018-12-15T21:52:40.909Z,27.43
2018-12-15T21:55:09.528Z,26.93
2018-12-15T21:57:37.889Z,26.97
2018-12-15T22:00:07.729Z,22.17
2018-12-15T22:02:36.621Z,24.90
2018-12-15T22:05:05.889Z,26.57
2018-12-15T22:07:34.354Z,26.93
2018-12-15T22:10:02.802Z,26.80
2018-12-15T22:12:31.459Z,26.30
2018-12-15T22:15:00.023Z,29.20
2018-12-15T22:17:28.674Z,25.60
2018-12-15T22:19:58.256Z,27.63
2018-12-15T22:22:26.931Z,29.27
2018-12-15T22:24:56.169Z,29.67
2018-12-15T22:27:24.997Z,29.80
2018-12-15T22:29:53.481Z,27.67
2018-12-15T22:32:22.138Z,28.53
2018-12-15T22:34:50.736Z,31.53
2018-12-15T22:37:19.331Z,32.63
2018-12-15T22:39:48.000Z,30.80
2018-12-15T22:42:16.543Z,30.40
2018-12-15T22:44:45.035Z,31.93
2018-12-15T22:47:14.331Z,29.07
2018-12-15T22:49:43.189Z,33.57
2018-12-15T22:52:12.737Z,31.67
2018-12-15T22:54:41.367Z,29.60
2018-12-15T22:57:10.262Z,34.13
2018-12-15T22:59:39.108Z,33.67
2018-12-15T23:02:07.635Z,30.63
2018-12-15T23:04:36.436Z,38.53
2018-12-15T23:07:05.177Z,31.60
2018-12-15T23:09:33.595Z,33.23
2018-12-15T23:12:02.303Z,31.90
2018-12-15T23:14:30.878Z,35.77
2018-12-15T23:16:59.269Z,36.73
2018-12-15T23:19:27.850Z,34.70
2018-12-15T23:21:56.517Z,36.30
2018-12-15T23:24:25.017Z,34.00
2018-12-15T23:26:52.488Z,30.83
2018-12-15T23:29:20.976Z,35.53
2018-12-15T23:31:49.417Z,35.60
2018-12-15T23:34:17.940Z,37.70
2018-12-15T23:39:14.145Z,36.90
2018-12-15T23:41:42.504Z,35.27
2018-12-15T23:44:10.959Z,36.97
2018-12-15T23:46:39.463Z,37.93
2018-12-15T23:49:07.852Z,33.57
2018-12-15T23:51:36.334Z,37.27
2018-12-15T23:54:05.025Z,37.07
2018-12-15T23:56:33.616Z,39.43
2018-12-15T23:59:02.130Z,34.33
